Ramsay, MI (49959)

7:53 AM CDT on May 25, 2015 (GMT -0500)
Burt St. Wxr | | Change Station
CLOSE
Current Station
Personal Weather Station
Location: Ramsay, MI
Elevation: 1479 ft
Nearby Weather Stations

Elev 1479 ft 46.47 °N, 90.00 °W | Updated 3 seconds ago

Rain
Rain
57.1 °F
Feels Like 57.1 °F
N
0.0
Wind Variable Wind from NNE
Gusts 6.0 mph

Today
High -- | Low -- °F
--% Chance of Precip.
Yesterday
High -- | Low -- °F
Precip. -- in
5:16 AM 8:38 PM
Waxing Crescent, 48% visible
Pressure 29.71 in
Visibility 7.0 miles
Clouds Few 600 ft
Mostly Cloudy 1700 ft
Overcast 2800 ft
Dew Point 56 °F
Humidity 96%
Rainfall 0.76 in
Snow Depth Not available.
UV 0 out of 12
Pollen .90 out of 12
Air Quality Not available.
Flu Activity Sporadic
METAR KIWD 251215Z AUTO 09009KT 7SM FEW006 BKN017 OVC028 14/14 A2971 RMK AO1

More Conditions Fewer Conditions

Pressure 29.71 in
Visibility 7.0 miles
Clouds Few 600 ft
Mostly Cloudy 1700 ft
Overcast 2800 ft
Dew Point 56 °F
Humidity 96%
Rainfall 0.76 in
Snow Depth Not available.
UV 0 out of 12
Pollen .90 out of 12
Air Quality Not available.
Flu Activity Sporadic
METAR KIWD 251215Z AUTO 09009KT 7SM FEW006 BKN017 OVC028 14/14 A2971 RMK AO1

More Conditions Fewer Conditions

10-Day Weather Forecast

Almanac

Astronomy

May. 25, 2015 Rise Set
Actual Time
Civil Twilight
Nautical Twilight
Astronomical Twilight
Moon
Length of Visible Light
Length of Day
Tomorrow will be .
, % of the Moon is Illuminated

Today's Extremes

State Highs State Lows

Community

WunderPhotos

Upload Photos

1,823,990 photos uploaded!

WunderBlogs® & News

Nearby

Air Quality

  Air Quality AQ Index Pollutant
Not available.

Snow Depth

Station Depth Elevation

Earthquake Activity

City Distance Mag. Time & Date
Minimum magnitude displayed is 2.5.

Coastal Water Temperatures

Place Temperature

Stations

Nearby Weather Stations

Station Location Temp. Windchill Dew Point Humidity Wind Precip. Elev Updated Type